Terminal Aerodrome Forecast
Issued by NWS Sterling, VA

Home | Current Version | Previous Version | Text Only | Print | Product List | Glossary On
Versions: 1 2 3 4 5 6 7 8 9 10 11 12 13 14 15 16 17 18 19 20 21 22 23 24 25 26 27
000
FTUS41 KLWX 301459 AAA
TAFDCA
TAF AMD
KDCA 301459Z 3015/0112 18007KT P6SM BKN070
     FM301600 19010G17KT P6SM BKN050
     FM301900 19012G19KT P6SM VCTS BKN050CB
     FM302300 16006KT P6SM BKN050
     FM010800 22004KT P6SM BKN060=

USA.gov is the U.S. government's official web portal to all federal, state and local government web resources and services.